createdAt,value
2023-08-17T00:01:39.152Z,101623.44
2023-08-17T00:04:05.837Z,101623.44
2023-08-17T00:06:34.152Z,101626.75
2023-08-17T00:09:00.813Z,101618.03
2023-08-17T00:11:27.386Z,101624.91
2023-08-17T00:13:53.904Z,101628.38
2023-08-17T00:16:20.458Z,101628.19
2023-08-17T00:18:47.017Z,101623.97
2023-08-17T00:21:13.597Z,101632.06
2023-08-17T00:23:41.604Z,101633.66
2023-08-17T00:26:08.873Z,101626.53
2023-08-17T00:28:35.418Z,101620.94
2023-08-17T00:31:02.796Z,101625.69
2023-08-17T00:33:29.602Z,101622.38
2023-08-17T00:35:56.142Z,101622.22
2023-08-17T00:38:22.752Z,101628.66
2023-08-17T00:40:51.045Z,101627.16
2023-08-17T00:43:17.561Z,101628.75
2023-08-17T00:45:46.477Z,101628.16
2023-08-17T00:48:13.640Z,101622.81
2023-08-17T00:50:41.808Z,101622.72
2023-08-17T00:53:09.564Z,101622.28
2023-08-17T00:55:36.142Z,101616.25
2023-08-17T00:58:04.653Z,101628.47
2023-08-17T01:00:32.431Z,101625.16
2023-08-17T01:02:59.168Z,101624.09
2023-08-17T01:05:25.856Z,101628.88
2023-08-17T01:07:52.362Z,101621.41
2023-08-17T01:10:19.224Z,101629.44
2023-08-17T01:12:54.521Z,101633.50
2023-08-17T01:15:28.451Z,101632.50
2023-08-17T01:17:59.272Z,101631.16
2023-08-17T01:20:27.052Z,101630.81
2023-08-17T01:22:56.986Z,101618.53
2023-08-17T01:25:25.124Z,101625.34
2023-08-17T01:27:51.697Z,101622.78
2023-08-17T01:30:19.622Z,101620.09
2023-08-17T01:32:52.182Z,101622.78
2023-08-17T01:35:26.856Z,101626.94
2023-08-17T01:37:56.151Z,101622.34
2023-08-17T01:40:23.820Z,101626.31
2023-08-17T01:42:52.776Z,101627.97
2023-08-17T01:45:19.585Z,101615.78
2023-08-17T01:47:46.133Z,101622.41
2023-08-17T01:50:12.728Z,101631.28
2023-08-17T01:52:39.522Z,101622.34
2023-08-17T01:55:06.695Z,101618.63
2023-08-17T01:57:33.244Z,101616.31
2023-08-17T02:00:01.372Z,101618.56
2023-08-17T02:02:27.944Z,101627.47
2023-08-17T02:04:54.483Z,101624.41
2023-08-17T02:07:21.023Z,101620.50
2023-08-17T02:09:47.526Z,101629.59
2023-08-17T02:12:14.091Z,101625.56
2023-08-17T02:14:40.588Z,101625.31
2023-08-17T02:17:08.475Z,101635.09
2023-08-17T02:19:35.007Z,101631.34
2023-08-17T02:22:03.662Z,101628.28
2023-08-17T02:24:30.222Z,101628.00
2023-08-17T02:26:56.806Z,101626.75
2023-08-17T02:29:23.399Z,101626.31
2023-08-17T02:31:49.949Z,101617.56
2023-08-17T02:34:18.180Z,101621.72
2023-08-17T02:36:44.718Z,101609.47
2023-08-17T02:39:11.246Z,101615.22
2023-08-17T02:41:37.824Z,101619.41
2023-08-17T02:44:04.816Z,101613.38
2023-08-17T02:46:31.639Z,101608.41
2023-08-17T02:48:58.224Z,101607.03
2023-08-17T02:51:26.167Z,101609.09
2023-08-17T02:53:52.711Z,101603.91
2023-08-17T02:56:19.257Z,101605.56
2023-08-17T02:58:45.812Z,101604.84
2023-08-17T03:01:12.342Z,101602.97
2023-08-17T03:03:39.013Z,101603.75
2023-08-17T03:06:06.058Z,101601.06
2023-08-17T03:08:34.011Z,101603.09
2023-08-17T03:11:00.755Z,101605.66
2023-08-17T03:13:27.276Z,101605.66
2023-08-17T03:15:55.129Z,101600.03
2023-08-17T03:18:21.688Z,101608.31
2023-08-17T03:20:48.266Z,101601.53
2023-08-17T03:23:14.824Z,101596.69
2023-08-17T03:25:42.711Z,101597.72
2023-08-17T03:28:09.253Z,101596.47
2023-08-17T03:30:35.859Z,101587.34
2023-08-17T03:33:02.493Z,101590.47
2023-08-17T03:35:29.175Z,101595.41
2023-08-17T03:37:55.707Z,101591.16
2023-08-17T03:40:22.265Z,101606.38
2023-08-17T03:42:50.192Z,101595.63
2023-08-17T03:45:16.865Z,101598.69
2023-08-17T03:47:43.419Z,101596.13
2023-08-17T03:50:10.623Z,101601.13
2023-08-17T03:52:37.365Z,101595.09
2023-08-17T03:55:04.235Z,101600.59
2023-08-17T03:57:33.147Z,101600.19
2023-08-17T04:00:02.120Z,101604.75
2023-08-17T04:02:28.657Z,101602.03
2023-08-17T04:04:55.347Z,101610.94
2023-08-17T04:07:22.419Z,101612.09
2023-08-17T04:09:49.134Z,101615.44
2023-08-17T04:12:15.839Z,101614.41
2023-08-17T04:14:42.388Z,101617.81
2023-08-17T04:17:10.599Z,101613.19
2023-08-17T04:19:37.144Z,101616.91
2023-08-17T04:22:03.772Z,101617.09
2023-08-17T04:24:30.536Z,101626.19
2023-08-17T04:26:57.114Z,101620.34
2023-08-17T04:29:23.889Z,101628.50
2023-08-17T04:31:50.442Z,101627.84
2023-08-17T04:34:18.405Z,101633.13
2023-08-17T04:36:44.977Z,101631.84
2023-08-17T04:39:11.499Z,101633.59
2023-08-17T04:41:38.097Z,101631.94
2023-08-17T04:44:05.259Z,101634.25
2023-08-17T04:46:31.808Z,101630.25
2023-08-17T04:48:58.369Z,101633.53
2023-08-17T04:51:26.230Z,101633.72
2023-08-17T04:53:52.767Z,101633.97
2023-08-17T04:56:19.305Z,101645.75
2023-08-17T04:58:45.874Z,101639.91
2023-08-17T05:01:12.524Z,101641.59
2023-08-17T05:03:39.366Z,101640.56
2023-08-17T05:06:05.960Z,101643.06
2023-08-17T05:08:33.896Z,101644.94
2023-08-17T05:11:00.462Z,101641.78
2023-08-17T05:13:27.027Z,101637.31
2023-08-17T05:15:53.623Z,101641.31
2023-08-17T05:18:20.228Z,101638.63
2023-08-17T05:20:46.950Z,101639.25
2023-08-17T05:23:13.643Z,101633.22
2023-08-17T05:25:41.568Z,101635.16
2023-08-17T05:28:08.171Z,101638.69
2023-08-17T05:30:34.723Z,101637.41
2023-08-17T05:33:01.313Z,101648.16
2023-08-17T05:35:27.867Z,101642.88
2023-08-17T05:37:54.402Z,101640.53
2023-08-17T05:40:20.928Z,101644.00
2023-08-17T05:42:48.986Z,101639.53
2023-08-17T05:45:15.849Z,101636.47
2023-08-17T05:47:42.498Z,101636.84
2023-08-17T05:50:09.272Z,101638.78
2023-08-17T05:52:35.798Z,101642.50
2023-08-17T05:55:02.474Z,101639.16
2023-08-17T05:57:29.229Z,101639.63
2023-08-17T05:59:57.412Z,101642.00
2023-08-17T06:02:24.146Z,101637.00
2023-08-17T06:04:50.727Z,101642.19
2023-08-17T06:07:17.316Z,101643.69
2023-08-17T06:09:43.953Z,101651.66
2023-08-17T06:12:10.524Z,101651.28
2023-08-17T06:14:37.230Z,101650.38
2023-08-17T06:17:05.215Z,101652.50
2023-08-17T06:19:31.779Z,101654.94
2023-08-17T06:21:58.343Z,101655.56
2023-08-17T06:24:25.024Z,101650.47
2023-08-17T06:26:51.705Z,101656.50
2023-08-17T06:29:18.299Z,101654.44
2023-08-17T06:31:44.943Z,101660.13
2023-08-17T06:34:12.873Z,101662.25
2023-08-17T06:36:39.708Z,101660.22
2023-08-17T06:39:06.462Z,101662.69
2023-08-17T06:41:33.054Z,101656.94
2023-08-17T06:43:59.594Z,101655.09
2023-08-17T06:46:26.380Z,101654.91
2023-08-17T06:48:52.968Z,101655.28
2023-08-17T06:51:21.046Z,101651.84
2023-08-17T06:53:47.729Z,101654.59
2023-08-17T06:56:14.445Z,101653.00
2023-08-17T06:58:40.932Z,101654.09
2023-08-17T07:01:07.486Z,101656.88
2023-08-17T07:03:34.095Z,101647.13
2023-08-17T07:06:00.711Z,101648.78
2023-08-17T07:08:28.595Z,101645.69
2023-08-17T07:10:55.161Z,101648.19
2023-08-17T07:13:21.704Z,101652.94
2023-08-17T07:15:48.273Z,101645.69
2023-08-17T07:18:14.832Z,101649.69
2023-08-17T07:20:41.345Z,101649.72
2023-08-17T07:23:07.885Z,101649.09
2023-08-17T07:25:35.921Z,101650.97
2023-08-17T07:28:02.461Z,101655.72
2023-08-17T07:30:29.103Z,101662.19
2023-08-17T07:32:55.702Z,101660.97
2023-08-17T07:35:22.319Z,101659.94
2023-08-17T07:37:59.525Z,101658.31
2023-08-17T07:40:30.522Z,101658.13
2023-08-17T07:42:58.477Z,101666.22
2023-08-17T07:45:25.101Z,101664.72
2023-08-17T07:47:51.667Z,101662.44
2023-08-17T07:50:18.301Z,101666.59
2023-08-17T07:52:44.872Z,101664.16
2023-08-17T07:55:11.486Z,101673.22
2023-08-17T07:57:38.098Z,101667.56
2023-08-17T08:00:07.445Z,101672.38
2023-08-17T08:02:34.024Z,101672.56
2023-08-17T08:05:00.673Z,101675.91
2023-08-17T08:07:27.531Z,101676.56
2023-08-17T08:09:54.368Z,101682.97
2023-08-17T08:12:20.898Z,101682.31
2023-08-17T08:14:47.461Z,101680.34
2023-08-17T08:17:15.498Z,101685.44
2023-08-17T08:19:42.060Z,101682.06
2023-08-17T08:22:08.660Z,101679.16
2023-08-17T08:24:37.888Z,101683.91
2023-08-17T08:27:05.553Z,101673.13
2023-08-17T08:29:32.099Z,101675.22
2023-08-17T08:31:58.643Z,101678.28
2023-08-17T08:34:26.709Z,101675.59
2023-08-17T08:36:53.221Z,101677.25
2023-08-17T08:39:19.829Z,101682.84
2023-08-17T08:41:46.390Z,101678.72
2023-08-17T08:44:13.181Z,101680.84
2023-08-17T08:46:41.441Z,101678.16
2023-08-17T08:49:12.064Z,101681.41
2023-08-17T08:51:44.748Z,101675.84
2023-08-17T08:54:14.644Z,101680.38
2023-08-17T08:56:47.878Z,101665.91
2023-08-17T08:59:16.107Z,101665.25
2023-08-17T09:01:43.156Z,101660.31
2023-08-17T09:04:09.829Z,101652.50
2023-08-17T09:06:38.151Z,101650.06
2023-08-17T09:09:08.214Z,101659.66
2023-08-17T09:11:34.749Z,101666.34
2023-08-17T09:14:01.428Z,101655.94
2023-08-17T09:16:28.443Z,101666.34
2023-08-17T09:18:55.040Z,101656.78
2023-08-17T09:21:22.115Z,101657.63
2023-08-17T09:23:51.997Z,101662.84
2023-08-17T09:26:20.846Z,101657.38
2023-08-17T09:28:47.408Z,101661.50
2023-08-17T09:31:14.054Z,101656.09
2023-08-17T09:33:45.343Z,101655.34
2023-08-17T09:36:12.468Z,101655.72
2023-08-17T09:38:39.174Z,101652.84
2023-08-17T09:41:06.020Z,101648.69
2023-08-17T09:43:34.613Z,101649.59
2023-08-17T09:46:01.892Z,101657.50
2023-08-17T09:48:32.847Z,101651.88
2023-08-17T09:51:00.239Z,101657.50
2023-08-17T09:53:26.956Z,101645.88
2023-08-17T09:55:54.884Z,101640.50
2023-08-17T09:58:21.480Z,101647.13
2023-08-17T10:00:51.799Z,101640.78
2023-08-17T10:03:20.353Z,101646.19
2023-08-17T10:05:53.422Z,101644.50
2023-08-17T10:08:22.658Z,101634.97
2023-08-17T10:10:50.082Z,101643.13
2023-08-17T10:13:25.531Z,101639.81
2023-08-17T10:16:03.091Z,101639.59
2023-08-17T10:18:45.949Z,101635.88
2023-08-17T10:21:22.417Z,101639.81
2023-08-17T10:23:49.590Z,101627.78
2023-08-17T10:26:17.249Z,101625.69
2023-08-17T10:28:45.430Z,101622.88
2023-08-17T10:31:14.604Z,101614.00
2023-08-17T10:33:41.709Z,101614.06
2023-08-17T10:36:08.834Z,101620.53
2023-08-17T10:38:35.373Z,101614.97
2023-08-17T10:41:17.822Z,101611.72
2023-08-17T10:43:55.489Z,101622.31
2023-08-17T10:46:33.656Z,101624.03
2023-08-17T10:49:03.761Z,101628.34
2023-08-17T10:51:30.357Z,101626.69
2023-08-17T10:53:59.833Z,101630.22
2023-08-17T10:56:28.736Z,101621.91
2023-08-17T10:58:55.303Z,101623.59
2023-08-17T11:01:33.946Z,101621.53
2023-08-17T11:04:10.543Z,101626.09
2023-08-17T11:06:37.113Z,101625.50
2023-08-17T11:09:07.933Z,101620.69
2023-08-17T11:11:34.868Z,101623.19
2023-08-17T11:14:01.464Z,101627.75
2023-08-17T11:16:28.156Z,101626.78
2023-08-17T11:18:56.120Z,101629.47
2023-08-17T11:21:22.827Z,101623.47
2023-08-17T11:23:49.453Z,101626.19
2023-08-17T11:26:17.093Z,101625.59
2023-08-17T11:28:43.937Z,101623.31
2023-08-17T11:31:12.338Z,101623.53
2023-08-17T11:33:40.219Z,101637.69
2023-08-17T11:36:09.247Z,101638.47
2023-08-17T11:38:37.763Z,101637.00
2023-08-17T11:41:04.842Z,101646.53
2023-08-17T11:43:33.616Z,101650.47
2023-08-17T11:46:01.743Z,101646.53
2023-08-17T11:48:29.077Z,101645.28
2023-08-17T11:50:55.742Z,101644.84
2023-08-17T11:53:23.734Z,101648.81
2023-08-17T11:55:55.573Z,101655.66
2023-08-17T11:58:37.337Z,101645.03
2023-08-17T12:01:04.183Z,101648.56
2023-08-17T12:03:30.868Z,101646.28
2023-08-17T12:05:58.440Z,101639.84
2023-08-17T12:08:26.624Z,101643.97
2023-08-17T12:10:53.451Z,101639.59
2023-08-17T12:13:20.115Z,101640.81
2023-08-17T12:15:46.690Z,101641.84
2023-08-17T12:18:13.232Z,101643.31
2023-08-17T12:20:41.432Z,101647.25
2023-08-17T12:23:09.195Z,101638.56
2023-08-17T12:25:37.120Z,101629.44
2023-08-17T12:28:04.265Z,101626.94
2023-08-17T12:30:32.917Z,101625.69
2023-08-17T12:32:59.527Z,101630.69
2023-08-17T12:35:26.596Z,101634.03
2023-08-17T12:37:55.223Z,101634.25
2023-08-17T12:40:23.138Z,101640.06
2023-08-17T12:42:51.299Z,101643.00
2023-08-17T12:45:18.175Z,101629.69
2023-08-17T12:47:44.764Z,101627.84
2023-08-17T12:50:11.366Z,101630.75
2023-08-17T12:52:38.024Z,101636.13
2023-08-17T12:55:05.106Z,101628.25
2023-08-17T12:57:31.853Z,101630.13
2023-08-17T12:59:59.790Z,101628.25
2023-08-17T13:02:26.619Z,101623.69
2023-08-17T13:04:53.421Z,101631.81
2023-08-17T13:07:19.983Z,101618.09
2023-08-17T13:09:46.910Z,101617.25
2023-08-17T13:12:13.585Z,101626.63
2023-08-17T13:14:40.223Z,101623.75
2023-08-17T13:17:08.560Z,101627.28
2023-08-17T13:19:35.456Z,101632.25
2023-08-17T13:22:02.207Z,101624.97
2023-08-17T13:24:28.952Z,101622.91
2023-08-17T13:26:55.523Z,101620.38
2023-08-17T13:29:22.368Z,101612.47
2023-08-17T13:31:49.121Z,101615.59
2023-08-17T13:34:17.019Z,101611.22
2023-08-17T13:36:43.688Z,101614.13
2023-08-17T13:39:10.254Z,101621.63
2023-08-17T13:41:36.861Z,101618.91
2023-08-17T13:44:03.797Z,101614.56
2023-08-17T13:46:30.716Z,101610.38
2023-08-17T13:48:57.284Z,101612.06
2023-08-17T13:51:25.206Z,101615.38
2023-08-17T13:53:51.760Z,101609.34
2023-08-17T13:56:18.417Z,101609.97
2023-08-17T13:58:45.018Z,101608.72
2023-08-17T14:01:11.638Z,101617.88
2023-08-17T14:03:38.308Z,101612.69
2023-08-17T14:06:05.036Z,101607.91
2023-08-17T14:08:32.986Z,101607.47
2023-08-17T14:10:59.609Z,101596.69
2023-08-17T14:13:26.141Z,101597.72
2023-08-17T14:15:52.949Z,101593.97
2023-08-17T14:18:19.710Z,101590.84
2023-08-17T14:20:46.241Z,101587.31
2023-08-17T14:23:12.792Z,101584.00
2023-08-17T14:25:40.711Z,101589.41
2023-08-17T14:28:08.018Z,101586.50
2023-08-17T14:30:34.969Z,101584.19
2023-08-17T14:33:01.841Z,101579.19
2023-08-17T14:35:28.808Z,101578.16
2023-08-17T14:37:55.401Z,101571.72
2023-08-17T14:40:22.091Z,101571.09
2023-08-17T14:42:54.433Z,101569.44
2023-08-17T14:45:21.315Z,101570.06
2023-08-17T14:47:47.863Z,101566.31
2023-08-17T14:50:14.426Z,101566.72
2023-08-17T14:52:41.041Z,101561.75
2023-08-17T14:55:08.496Z,101560.31
2023-08-17T14:57:35.200Z,101552.59
2023-08-17T15:00:03.909Z,101560.09
2023-08-17T15:02:31.099Z,101562.59
2023-08-17T15:04:57.692Z,101558.44
2023-08-17T15:07:24.487Z,101557.59
2023-08-17T15:09:51.361Z,101552.59
2023-08-17T15:12:17.907Z,101547.44
2023-08-17T15:14:44.443Z,101547.84
2023-08-17T15:17:12.342Z,101548.25
2023-08-17T15:19:41.045Z,101552.81
2023-08-17T15:22:08.299Z,101542.84
2023-08-17T15:24:34.975Z,101543.47
2023-08-17T15:27:01.582Z,101535.78
2023-08-17T15:29:28.204Z,101538.09
2023-08-17T15:31:54.725Z,101535.38
2023-08-17T15:34:23.001Z,101535.34
2023-08-17T15:36:49.521Z,101536.00
2023-08-17T15:39:16.042Z,101531.44
2023-08-17T15:41:42.572Z,101534.72
2023-08-17T15:44:09.591Z,101528.09
2023-08-17T15:46:36.181Z,101532.66
2023-08-17T15:49:02.870Z,101529.97
2023-08-17T15:51:30.788Z,101525.19
2023-08-17T15:53:57.296Z,101523.09
2023-08-17T15:56:23.951Z,101522.25
2023-08-17T15:58:50.720Z,101523.72
2023-08-17T16:01:17.333Z,101517.09
2023-08-17T16:03:45.745Z,101517.69
2023-08-17T16:06:12.537Z,101512.72
2023-08-17T16:08:48.740Z,101508.75
2023-08-17T16:11:16.824Z,101515.22
2023-08-17T16:13:46.653Z,101508.38
2023-08-17T16:16:13.626Z,101500.06
2023-08-17T16:18:40.408Z,101509.81
2023-08-17T16:21:13.898Z,101506.66
2023-08-17T16:23:42.535Z,101505.88
2023-08-17T16:26:09.215Z,101503.38
2023-08-17T16:28:35.790Z,101495.06
2023-08-17T16:31:05.216Z,101495.88
2023-08-17T16:33:32.433Z,101489.44
2023-08-17T16:35:59.075Z,101483.84
2023-08-17T16:38:25.660Z,101484.06
2023-08-17T16:40:53.503Z,101486.56
2023-08-17T16:43:19.996Z,101481.16
2023-08-17T16:45:46.642Z,101485.28
2023-08-17T16:48:13.281Z,101480.31
2023-08-17T16:50:40.010Z,101478.03
2023-08-17T16:53:06.808Z,101471.59
2023-08-17T16:55:33.400Z,101473.03
2023-08-17T16:58:01.395Z,101470.75
2023-08-17T17:00:27.969Z,101469.09
2023-08-17T17:02:54.553Z,101469.94
2023-08-17T17:05:21.206Z,101470.34
2023-08-17T17:07:47.752Z,101475.72
2023-08-17T17:10:14.292Z,101461.41
2023-08-17T17:12:40.844Z,101470.34
2023-08-17T17:15:09.695Z,101466.41
2023-08-17T17:17:36.260Z,101471.41
2023-08-17T17:20:03.379Z,101467.25
2023-08-17T17:22:29.988Z,101462.25
2023-08-17T17:24:56.674Z,101463.88
2023-08-17T17:27:23.254Z,101473.66
2023-08-17T17:29:49.825Z,101450.59
2023-08-17T17:32:17.738Z,101469.28
2023-08-17T17:34:44.240Z,101462.03
2023-08-17T17:37:10.831Z,101456.19
2023-08-17T17:39:37.343Z,101458.28
2023-08-17T17:42:04.224Z,101470.13
2023-08-17T17:44:30.779Z,101465.34
2023-08-17T17:46:57.471Z,101466.78
2023-08-17T17:49:25.360Z,101466.38
2023-08-17T17:51:51.905Z,101467.41
2023-08-17T17:54:18.410Z,101467.97
2023-08-17T17:56:45.688Z,101473.56
2023-08-17T17:59:12.563Z,101474.00
2023-08-17T18:01:39.190Z,101477.28
2023-08-17T18:04:06.146Z,101476.69
2023-08-17T18:06:35.290Z,101478.97
2023-08-17T18:09:01.962Z,101482.88
2023-08-17T18:11:28.488Z,101476.84
2023-08-17T18:13:54.991Z,101484.94
2023-08-17T18:16:21.700Z,101487.84
2023-08-17T18:18:48.293Z,101481.84
2023-08-17T18:21:14.870Z,101486.59
2023-08-17T18:23:42.788Z,101488.88
2023-08-17T18:26:09.414Z,101481.38
2023-08-17T18:28:35.968Z,101490.28
2023-08-17T18:31:02.544Z,101485.97
2023-08-17T18:33:29.099Z,101491.75
2023-08-17T18:35:55.783Z,101492.78
2023-08-17T18:38:22.729Z,101503.13
2023-08-17T18:40:52.385Z,101503.31
2023-08-17T18:43:20.607Z,101505.00
2023-08-17T18:45:47.171Z,101512.88
2023-08-17T18:48:13.822Z,101509.34
2023-08-17T18:50:40.463Z,101503.94
2023-08-17T18:53:08.048Z,101509.94
2023-08-17T18:55:34.657Z,101513.66
2023-08-17T18:58:02.528Z,101509.72
2023-08-17T19:00:29.167Z,101514.88
2023-08-17T19:02:55.801Z,101514.06
2023-08-17T19:05:22.617Z,101515.09
2023-08-17T19:07:49.181Z,101505.75
2023-08-17T19:10:16.621Z,101514.41
2023-08-17T19:12:43.348Z,101514.00
2023-08-17T19:15:11.552Z,101510.28
2023-08-17T19:17:38.386Z,101514.00
2023-08-17T19:20:06.546Z,101512.97
2023-08-17T19:22:33.099Z,101510.09
2023-08-17T19:25:00.825Z,101508.81
2023-08-17T19:27:29.360Z,101515.03
2023-08-17T19:29:56.243Z,101508.59
2023-08-17T19:32:24.231Z,101507.97
2023-08-17T19:34:50.739Z,101509.84
2023-08-17T19:37:17.299Z,101512.72
2023-08-17T19:39:43.864Z,101509.00
2023-08-17T19:42:10.622Z,101524.13
2023-08-17T19:44:37.158Z,101511.88
2023-08-17T19:47:03.829Z,101507.72
2023-08-17T19:49:31.717Z,101510.22
2023-08-17T19:51:58.229Z,101518.50
2023-08-17T19:54:24.749Z,101516.81
2023-08-17T19:56:51.277Z,101518.09
2023-08-17T19:59:18.264Z,101521.81
2023-08-17T20:01:46.682Z,101520.97
2023-08-17T20:04:13.286Z,101528.03
2023-08-17T20:06:41.177Z,101525.72
2023-08-17T20:09:08.214Z,101527.38
2023-08-17T20:11:35.095Z,101514.28
2023-08-17T20:14:01.693Z,101521.16
2023-08-17T20:16:28.242Z,101521.34
2023-08-17T20:18:54.904Z,101527.75
2023-08-17T20:21:21.559Z,101521.94
2023-08-17T20:23:49.566Z,101531.88
2023-08-17T20:26:16.143Z,101530.81
2023-08-17T20:28:42.680Z,101534.34
2023-08-17T20:31:09.261Z,101536.03
2023-08-17T20:33:35.843Z,101525.44
2023-08-17T20:36:02.385Z,101535.00
2023-08-17T20:38:29.021Z,101534.16
2023-08-17T20:40:56.949Z,101532.31
2023-08-17T20:43:23.540Z,101527.94
2023-08-17T20:45:50.081Z,101530.44
2023-08-17T20:48:16.668Z,101527.09
2023-08-17T20:50:43.916Z,101526.28
2023-08-17T20:53:10.923Z,101537.88
2023-08-17T20:55:40.098Z,101535.41
2023-08-17T20:58:08.513Z,101526.88
2023-08-17T21:00:35.456Z,101539.31
2023-08-17T21:03:02.420Z,101531.44
2023-08-17T21:05:29.157Z,101537.47
2023-08-17T21:07:56.017Z,101529.56
2023-08-17T21:10:23.198Z,101530.59
2023-08-17T21:12:49.911Z,101532.47
2023-08-17T21:15:17.880Z,101532.91
2023-08-17T21:17:45.401Z,101531.44
2023-08-17T21:20:12.369Z,101528.75
2023-08-17T21:22:47.550Z,101522.53
2023-08-17T21:25:14.316Z,101517.13
2023-08-17T21:27:40.869Z,101518.59
2023-08-17T21:30:08.287Z,101516.75
2023-08-17T21:32:36.229Z,101517.34
2023-08-17T21:35:02.789Z,101504.09
2023-08-17T21:37:29.761Z,101511.97
2023-08-17T21:39:56.737Z,101510.72
2023-08-17T21:42:23.252Z,101505.13
2023-08-17T21:44:50.206Z,101504.94
2023-08-17T21:47:17.108Z,101496.41
2023-08-17T21:49:47.121Z,101498.06
2023-08-17T21:52:13.818Z,101492.25
2023-08-17T21:54:40.401Z,101491.59
2023-08-17T21:57:06.934Z,101495.97
2023-08-17T21:59:33.596Z,101494.09
2023-08-17T22:02:00.247Z,101489.53
2023-08-17T22:04:26.833Z,101487.88
2023-08-17T22:06:54.729Z,101496.16
2023-08-17T22:09:21.264Z,101495.53
2023-08-17T22:11:47.794Z,101500.09
2023-08-17T22:14:14.277Z,101497.78
2023-08-17T22:16:40.833Z,101502.91
2023-08-17T22:19:07.408Z,101494.63
2023-08-17T22:21:33.974Z,101501.22
2023-08-17T22:24:01.901Z,101499.09
2023-08-17T22:26:28.467Z,101497.00
2023-08-17T22:28:55.014Z,101507.34
2023-08-17T22:31:21.621Z,101505.66
2023-08-17T22:33:48.186Z,101502.13
2023-08-17T22:36:14.690Z,101503.16
2023-08-17T22:38:41.219Z,101496.75
2023-08-17T22:41:09.212Z,101504.00
2023-08-17T22:43:35.787Z,101502.97
2023-08-17T22:46:03.407Z,101497.59
2023-08-17T22:48:30.027Z,101492.19
2023-08-17T22:50:56.546Z,101488.28
2023-08-17T22:53:23.145Z,101484.13
2023-08-17T22:55:49.898Z,101489.50
2023-08-17T22:58:17.930Z,101478.94
2023-08-17T23:00:44.556Z,101482.88
2023-08-17T23:03:11.240Z,101468.75
2023-08-17T23:05:37.813Z,101474.78
2023-08-17T23:08:04.840Z,101475.81
2023-08-17T23:10:31.432Z,101475.81
2023-08-17T23:12:58.028Z,101473.78
2023-08-17T23:15:26.134Z,101471.47
2023-08-17T23:17:52.708Z,101465.88
2023-08-17T23:20:19.572Z,101470.63
2023-08-17T23:22:46.088Z,101467.09
2023-08-17T23:25:12.646Z,101472.09
2023-08-17T23:27:39.827Z,101474.16
2023-08-17T23:30:07.654Z,101472.47
2023-08-17T23:32:35.786Z,101469.97
2023-08-17T23:35:02.557Z,101464.78
2023-08-17T23:37:29.231Z,101465.81
2023-08-17T23:39:56.081Z,101465.81
2023-08-17T23:42:22.621Z,101458.75
2023-08-17T23:44:49.155Z,101457.94
2023-08-17T23:47:15.690Z,101452.75
2023-08-17T23:49:43.545Z,101446.75
2023-08-17T23:52:10.103Z,101452.75
2023-08-17T23:54:36.708Z,101449.81
2023-08-17T23:57:03.316Z,101446.47
2023-08-17T23:59:29.988Z,101448.34
